sensor_id;sensor_type;location;lat;lon;timestamp;P1;durP1;ratioP1;P2;durP2;ratioP2
6394;SDS011;3230;42.588;23.358;2023-02-23T00:01:18;6.87;;;4.43;;
6394;SDS011;3230;42.588;23.358;2023-02-23T00:03:48;11.95;;;5.00;;
6394;SDS011;3230;42.588;23.358;2023-02-23T00:06:15;10.00;;;5.70;;
6394;SDS011;3230;42.588;23.358;2023-02-23T00:08:42;10.90;;;6.57;;
6394;SDS011;3230;42.588;23.358;2023-02-23T00:11:09;11.73;;;6.20;;
6394;SDS011;3230;42.588;23.358;2023-02-23T00:13:38;8.45;;;5.15;;
6394;SDS011;3230;42.588;23.358;2023-02-23T00:18:32;6.53;;;4.60;;
6394;SDS011;3230;42.588;23.358;2023-02-23T00:21:09;7.60;;;4.40;;
6394;SDS011;3230;42.588;23.358;2023-02-23T00:24:04;9.57;;;4.90;;
6394;SDS011;3230;42.588;23.358;2023-02-23T00:26:33;6.65;;;4.72;;
6394;SDS011;3230;42.588;23.358;2023-02-23T00:29:01;6.65;;;3.95;;
6394;SDS011;3230;42.588;23.358;2023-02-23T00:31:29;5.82;;;4.43;;
6394;SDS011;3230;42.588;23.358;2023-02-23T00:33:55;6.70;;;4.10;;
6394;SDS011;3230;42.588;23.358;2023-02-23T00:36:25;7.17;;;4.23;;
6394;SDS011;3230;42.588;23.358;2023-02-23T00:38:54;11.60;;;6.70;;
6394;SDS011;3230;42.588;23.358;2023-02-23T00:41:21;10.05;;;5.43;;
6394;SDS011;3230;42.588;23.358;2023-02-23T00:43:52;10.93;;;5.75;;
6394;SDS011;3230;42.588;23.358;2023-02-23T00:46:19;10.57;;;4.80;;
6394;SDS011;3230;42.588;23.358;2023-02-23T00:48:47;8.23;;;5.10;;
6394;SDS011;3230;42.588;23.358;2023-02-23T00:51:14;10.43;;;4.68;;
6394;SDS011;3230;42.588;23.358;2023-02-23T00:53:41;10.23;;;5.82;;
6394;SDS011;3230;42.588;23.358;2023-02-23T00:56:07;9.75;;;5.70;;
6394;SDS011;3230;42.588;23.358;2023-02-23T00:58:33;9.20;;;5.50;;
6394;SDS011;3230;42.588;23.358;2023-02-23T01:00:59;15.70;;;5.90;;
6394;SDS011;3230;42.588;23.358;2023-02-23T01:03:25;9.70;;;5.70;;
6394;SDS011;3230;42.588;23.358;2023-02-23T01:05:50;7.35;;;5.00;;
6394;SDS011;3230;42.588;23.358;2023-02-23T01:08:16;8.07;;;4.43;;
6394;SDS011;3230;42.588;23.358;2023-02-23T01:10:43;8.80;;;5.05;;
6394;SDS011;3230;42.588;23.358;2023-02-23T01:13:16;7.68;;;4.32;;
6394;SDS011;3230;42.588;23.358;2023-02-23T01:15:44;8.43;;;4.70;;
6394;SDS011;3230;42.588;23.358;2023-02-23T01:18:11;8.57;;;5.05;;
6394;SDS011;3230;42.588;23.358;2023-02-23T01:20:39;10.35;;;6.03;;
6394;SDS011;3230;42.588;23.358;2023-02-23T01:23:06;12.55;;;6.13;;
6394;SDS011;3230;42.588;23.358;2023-02-23T01:25:32;16.83;;;7.35;;
6394;SDS011;3230;42.588;23.358;2023-02-23T01:27:58;23.70;;;10.83;;
6394;SDS011;3230;42.588;23.358;2023-02-23T01:30:24;24.60;;;10.67;;
6394;SDS011;3230;42.588;23.358;2023-02-23T01:32:49;16.37;;;8.20;;
6394;SDS011;3230;42.588;23.358;2023-02-23T01:35:16;16.33;;;7.05;;
6394;SDS011;3230;42.588;23.358;2023-02-23T01:37:41;9.97;;;5.20;;
6394;SDS011;3230;42.588;23.358;2023-02-23T01:40:11;5.85;;;3.58;;
6394;SDS011;3230;42.588;23.358;2023-02-23T01:42:40;6.97;;;3.63;;
6394;SDS011;3230;42.588;23.358;2023-02-23T01:45:18;5.70;;;4.00;;
6394;SDS011;3230;42.588;23.358;2023-02-23T01:47:48;5.50;;;3.22;;
6394;SDS011;3230;42.588;23.358;2023-02-23T01:50:15;5.13;;;3.30;;
6394;SDS011;3230;42.588;23.358;2023-02-23T01:52:44;5.73;;;4.03;;
6394;SDS011;3230;42.588;23.358;2023-02-23T01:55:15;8.30;;;4.38;;
6394;SDS011;3230;42.588;23.358;2023-02-23T01:57:49;6.68;;;4.32;;
6394;SDS011;3230;42.588;23.358;2023-02-23T02:00:20;5.22;;;3.15;;
6394;SDS011;3230;42.588;23.358;2023-02-23T02:02:50;5.40;;;3.28;;
6394;SDS011;3230;42.588;23.358;2023-02-23T02:05:16;7.35;;;4.47;;
6394;SDS011;3230;42.588;23.358;2023-02-23T02:07:44;8.15;;;4.00;;
6394;SDS011;3230;42.588;23.358;2023-02-23T02:10:13;6.95;;;3.50;;
6394;SDS011;3230;42.588;23.358;2023-02-23T02:12:40;7.70;;;3.80;;
6394;SDS011;3230;42.588;23.358;2023-02-23T02:15:08;5.00;;;3.53;;
6394;SDS011;3230;42.588;23.358;2023-02-23T02:26:06;6.90;;;4.25;;
6394;SDS011;3230;42.588;23.358;2023-02-23T02:29:14;5.55;;;3.72;;
6394;SDS011;3230;42.588;23.358;2023-02-23T02:38:16;7.15;;;3.60;;
6394;SDS011;3230;42.588;23.358;2023-02-23T02:41:07;7.00;;;4.10;;
6394;SDS011;3230;42.588;23.358;2023-02-23T02:46:12;5.97;;;3.70;;
6394;SDS011;3230;42.588;23.358;2023-02-23T02:51:34;6.30;;;4.10;;
6394;SDS011;3230;42.588;23.358;2023-02-23T02:54:02;6.22;;;4.00;;
6394;SDS011;3230;42.588;23.358;2023-02-23T02:56:31;6.72;;;4.18;;
6394;SDS011;3230;42.588;23.358;2023-02-23T02:59:04;7.30;;;4.40;;
6394;SDS011;3230;42.588;23.358;2023-02-23T03:01:51;7.13;;;4.13;;
6394;SDS011;3230;42.588;23.358;2023-02-23T03:04:35;5.80;;;3.67;;
6394;SDS011;3230;42.588;23.358;2023-02-23T03:07:22;8.90;;;5.57;;
6394;SDS011;3230;42.588;23.358;2023-02-23T03:10:17;10.45;;;5.80;;
6394;SDS011;3230;42.588;23.358;2023-02-23T03:13:34;6.18;;;4.63;;
6394;SDS011;3230;42.588;23.358;2023-02-23T03:24:39;6.35;;;4.20;;
6394;SDS011;3230;42.588;23.358;2023-02-23T03:27:38;7.60;;;5.03;;
6394;SDS011;3230;42.588;23.358;2023-02-23T03:30:35;6.05;;;4.38;;
6394;SDS011;3230;42.588;23.358;2023-02-23T03:36:38;6.60;;;4.20;;
6394;SDS011;3230;42.588;23.358;2023-02-23T03:42:31;5.90;;;3.90;;
6394;SDS011;3230;42.588;23.358;2023-02-23T03:45:20;11.00;;;5.25;;
6394;SDS011;3230;42.588;23.358;2023-02-23T03:48:08;12.00;;;6.28;;
6394;SDS011;3230;42.588;23.358;2023-02-23T03:50:54;14.27;;;7.03;;
6394;SDS011;3230;42.588;23.358;2023-02-23T03:53:46;10.73;;;6.63;;
6394;SDS011;3230;42.588;23.358;2023-02-23T03:56:36;10.40;;;6.22;;
6394;SDS011;3230;42.588;23.358;2023-02-23T03:59:25;12.30;;;6.53;;
6394;SDS011;3230;42.588;23.358;2023-02-23T04:02:15;14.70;;;6.72;;
6394;SDS011;3230;42.588;23.358;2023-02-23T04:05:02;10.65;;;6.00;;
6394;SDS011;3230;42.588;23.358;2023-02-23T04:07:50;12.48;;;6.65;;
6394;SDS011;3230;42.588;23.358;2023-02-23T04:10:38;14.15;;;7.40;;
6394;SDS011;3230;42.588;23.358;2023-02-23T04:13:28;32.60;;;13.85;;
6394;SDS011;3230;42.588;23.358;2023-02-23T04:18:33;16.67;;;8.10;;
6394;SDS011;3230;42.588;23.358;2023-02-23T04:21:00;13.30;;;6.18;;
6394;SDS011;3230;42.588;23.358;2023-02-23T04:23:27;10.65;;;5.97;;
6394;SDS011;3230;42.588;23.358;2023-02-23T04:25:53;10.07;;;4.90;;
6394;SDS011;3230;42.588;23.358;2023-02-23T04:28:20;10.90;;;4.97;;
6394;SDS011;3230;42.588;23.358;2023-02-23T04:30:46;9.95;;;4.93;;
6394;SDS011;3230;42.588;23.358;2023-02-23T04:33:12;11.37;;;5.37;;
6394;SDS011;3230;42.588;23.358;2023-02-23T04:35:38;9.13;;;5.13;;
6394;SDS011;3230;42.588;23.358;2023-02-23T04:38:04;7.70;;;4.97;;
6394;SDS011;3230;42.588;23.358;2023-02-23T04:40:29;7.37;;;4.53;;
6394;SDS011;3230;42.588;23.358;2023-02-23T04:42:55;7.70;;;4.73;;
6394;SDS011;3230;42.588;23.358;2023-02-23T04:45:21;8.80;;;4.90;;
6394;SDS011;3230;42.588;23.358;2023-02-23T04:47:47;9.65;;;5.10;;
6394;SDS011;3230;42.588;23.358;2023-02-23T04:50:13;7.40;;;4.60;;
6394;SDS011;3230;42.588;23.358;2023-02-23T04:52:39;6.77;;;4.50;;
6394;SDS011;3230;42.588;23.358;2023-02-23T04:55:05;8.07;;;4.70;;
6394;SDS011;3230;42.588;23.358;2023-02-23T04:57:32;8.60;;;4.80;;
6394;SDS011;3230;42.588;23.358;2023-02-23T04:59:59;6.45;;;4.10;;
6394;SDS011;3230;42.588;23.358;2023-02-23T05:02:25;8.00;;;4.60;;
6394;SDS011;3230;42.588;23.358;2023-02-23T05:04:50;7.40;;;4.40;;
6394;SDS011;3230;42.588;23.358;2023-02-23T05:07:16;6.00;;;3.80;;
6394;SDS011;3230;42.588;23.358;2023-02-23T05:09:41;6.50;;;4.37;;
6394;SDS011;3230;42.588;23.358;2023-02-23T05:12:07;6.50;;;4.60;;
6394;SDS011;3230;42.588;23.358;2023-02-23T05:14:32;12.80;;;4.90;;
6394;SDS011;3230;42.588;23.358;2023-02-23T05:16:58;7.00;;;4.40;;
6394;SDS011;3230;42.588;23.358;2023-02-23T05:19:23;11.13;;;5.20;;
6394;SDS011;3230;42.588;23.358;2023-02-23T05:21:50;5.88;;;3.88;;
6394;SDS011;3230;42.588;23.358;2023-02-23T05:24:15;7.07;;;4.40;;
6394;SDS011;3230;42.588;23.358;2023-02-23T05:26:42;10.18;;;5.63;;
6394;SDS011;3230;42.588;23.358;2023-02-23T05:29:09;10.13;;;4.70;;
6394;SDS011;3230;42.588;23.358;2023-02-23T05:31:34;10.93;;;5.17;;
6394;SDS011;3230;42.588;23.358;2023-02-23T05:34:00;11.50;;;7.20;;
6394;SDS011;3230;42.588;23.358;2023-02-23T05:36:25;7.27;;;5.33;;
6394;SDS011;3230;42.588;23.358;2023-02-23T05:38:51;7.13;;;4.93;;
6394;SDS011;3230;42.588;23.358;2023-02-23T05:41:18;8.03;;;4.20;;
6394;SDS011;3230;42.588;23.358;2023-02-23T05:43:46;10.32;;;4.88;;
6394;SDS011;3230;42.588;23.358;2023-02-23T05:46:16;6.07;;;4.28;;
6394;SDS011;3230;42.588;23.358;2023-02-23T05:48:44;9.60;;;5.20;;
6394;SDS011;3230;42.588;23.358;2023-02-23T05:51:10;8.67;;;5.17;;
6394;SDS011;3230;42.588;23.358;2023-02-23T05:53:38;9.50;;;5.70;;
6394;SDS011;3230;42.588;23.358;2023-02-23T05:56:05;12.70;;;6.30;;
6394;SDS011;3230;42.588;23.358;2023-02-23T05:58:32;11.05;;;6.00;;
6394;SDS011;3230;42.588;23.358;2023-02-23T06:00:57;9.77;;;5.60;;
6394;SDS011;3230;42.588;23.358;2023-02-23T06:03:23;8.10;;;5.10;;
6394;SDS011;3230;42.588;23.358;2023-02-23T06:05:49;7.53;;;5.13;;
6394;SDS011;3230;42.588;23.358;2023-02-23T06:08:15;7.73;;;4.83;;
6394;SDS011;3230;42.588;23.358;2023-02-23T06:10:41;7.33;;;4.20;;
6394;SDS011;3230;42.588;23.358;2023-02-23T06:13:07;7.77;;;4.67;;
6394;SDS011;3230;42.588;23.358;2023-02-23T06:15:32;8.37;;;4.33;;
6394;SDS011;3230;42.588;23.358;2023-02-23T06:17:57;7.80;;;4.00;;
6394;SDS011;3230;42.588;23.358;2023-02-23T06:20:23;7.70;;;4.27;;
6394;SDS011;3230;42.588;23.358;2023-02-23T06:22:48;7.90;;;4.97;;
6394;SDS011;3230;42.588;23.358;2023-02-23T06:25:14;15.83;;;9.60;;
6394;SDS011;3230;42.588;23.358;2023-02-23T06:27:39;9.90;;;7.17;;
6394;SDS011;3230;42.588;23.358;2023-02-23T06:30:06;12.03;;;7.73;;
6394;SDS011;3230;42.588;23.358;2023-02-23T06:32:32;15.93;;;7.47;;
6394;SDS011;3230;42.588;23.358;2023-02-23T06:34:58;9.90;;;7.17;;
6394;SDS011;3230;42.588;23.358;2023-02-23T06:37:23;10.07;;;7.07;;
6394;SDS011;3230;42.588;23.358;2023-02-23T06:39:49;11.17;;;7.40;;
6394;SDS011;3230;42.588;23.358;2023-02-23T06:42:14;16.70;;;8.60;;
6394;SDS011;3230;42.588;23.358;2023-02-23T06:44:40;14.03;;;9.00;;
6394;SDS011;3230;42.588;23.358;2023-02-23T06:47:06;14.97;;;10.30;;
6394;SDS011;3230;42.588;23.358;2023-02-23T06:49:31;15.67;;;8.97;;
6394;SDS011;3230;42.588;23.358;2023-02-23T06:51:57;13.83;;;7.77;;
6394;SDS011;3230;42.588;23.358;2023-02-23T06:54:22;16.67;;;11.17;;
6394;SDS011;3230;42.588;23.358;2023-02-23T06:56:48;16.17;;;8.20;;
6394;SDS011;3230;42.588;23.358;2023-02-23T06:59:14;10.73;;;6.90;;
6394;SDS011;3230;42.588;23.358;2023-02-23T07:01:39;9.57;;;5.00;;
6394;SDS011;3230;42.588;23.358;2023-02-23T07:04:08;10.87;;;5.40;;
6394;SDS011;3230;42.588;23.358;2023-02-23T07:06:34;8.27;;;4.97;;
6394;SDS011;3230;42.588;23.358;2023-02-23T07:08:59;7.07;;;4.90;;
6394;SDS011;3230;42.588;23.358;2023-02-23T07:11:24;8.50;;;4.80;;
6394;SDS011;3230;42.588;23.358;2023-02-23T07:13:50;11.00;;;5.27;;
6394;SDS011;3230;42.588;23.358;2023-02-23T07:16:15;6.70;;;4.63;;
6394;SDS011;3230;42.588;23.358;2023-02-23T07:18:41;9.30;;;5.00;;
6394;SDS011;3230;42.588;23.358;2023-02-23T07:21:06;8.97;;;5.80;;
6394;SDS011;3230;42.588;23.358;2023-02-23T07:23:32;9.27;;;5.60;;
6394;SDS011;3230;42.588;23.358;2023-02-23T07:25:58;7.97;;;5.17;;
6394;SDS011;3230;42.588;23.358;2023-02-23T07:28:24;12.07;;;6.07;;
6394;SDS011;3230;42.588;23.358;2023-02-23T07:30:56;12.50;;;6.83;;
6394;SDS011;3230;42.588;23.358;2023-02-23T07:33:22;12.70;;;6.73;;
6394;SDS011;3230;42.588;23.358;2023-02-23T07:35:48;20.47;;;7.87;;
6394;SDS011;3230;42.588;23.358;2023-02-23T07:38:14;23.60;;;7.20;;
6394;SDS011;3230;42.588;23.358;2023-02-23T07:40:40;12.70;;;7.03;;
6394;SDS011;3230;42.588;23.358;2023-02-23T07:43:05;35.50;;;7.83;;
6394;SDS011;3230;42.588;23.358;2023-02-23T07:45:31;20.30;;;8.30;;
6394;SDS011;3230;42.588;23.358;2023-02-23T07:47:57;12.47;;;5.80;;
6394;SDS011;3230;42.588;23.358;2023-02-23T07:50:23;10.97;;;6.23;;
6394;SDS011;3230;42.588;23.358;2023-02-23T07:52:50;9.93;;;6.43;;
6394;SDS011;3230;42.588;23.358;2023-02-23T07:55:16;16.33;;;6.13;;
6394;SDS011;3230;42.588;23.358;2023-02-23T07:57:42;11.23;;;6.80;;
6394;SDS011;3230;42.588;23.358;2023-02-23T08:00:09;10.30;;;6.50;;
6394;SDS011;3230;42.588;23.358;2023-02-23T08:02:35;16.10;;;5.50;;
6394;SDS011;3230;42.588;23.358;2023-02-23T08:05:00;11.10;;;6.30;;
6394;SDS011;3230;42.588;23.358;2023-02-23T08:07:26;11.83;;;5.77;;
6394;SDS011;3230;42.588;23.358;2023-02-23T08:09:51;9.03;;;6.30;;
6394;SDS011;3230;42.588;23.358;2023-02-23T08:12:17;8.63;;;5.67;;
6394;SDS011;3230;42.588;23.358;2023-02-23T08:14:43;10.77;;;5.63;;
6394;SDS011;3230;42.588;23.358;2023-02-23T08:17:09;7.07;;;5.10;;
6394;SDS011;3230;42.588;23.358;2023-02-23T08:19:34;19.10;;;10.40;;
6394;SDS011;3230;42.588;23.358;2023-02-23T08:22:01;16.13;;;7.13;;
6394;SDS011;3230;42.588;23.358;2023-02-23T08:24:27;13.47;;;7.33;;
6394;SDS011;3230;42.588;23.358;2023-02-23T08:26:55;10.20;;;7.03;;
6394;SDS011;3230;42.588;23.358;2023-02-23T08:29:21;8.83;;;6.70;;
6394;SDS011;3230;42.588;23.358;2023-02-23T08:31:46;11.37;;;7.00;;
6394;SDS011;3230;42.588;23.358;2023-02-23T08:34:12;12.63;;;6.83;;
6394;SDS011;3230;42.588;23.358;2023-02-23T08:36:38;29.07;;;8.50;;
6394;SDS011;3230;42.588;23.358;2023-02-23T08:39:04;13.30;;;7.60;;
6394;SDS011;3230;42.588;23.358;2023-02-23T08:41:32;19.40;;;8.40;;
6394;SDS011;3230;42.588;23.358;2023-02-23T08:43:58;9.63;;;6.53;;
6394;SDS011;3230;42.588;23.358;2023-02-23T08:46:23;8.73;;;6.73;;
6394;SDS011;3230;42.588;23.358;2023-02-23T08:48:49;59.10;;;8.87;;
6394;SDS011;3230;42.588;23.358;2023-02-23T08:51:14;11.67;;;6.30;;
6394;SDS011;3230;42.588;23.358;2023-02-23T08:53:40;9.23;;;6.20;;
6394;SDS011;3230;42.588;23.358;2023-02-23T08:56:06;12.50;;;6.60;;
6394;SDS011;3230;42.588;23.358;2023-02-23T08:58:34;9.10;;;6.17;;
6394;SDS011;3230;42.588;23.358;2023-02-23T09:01:00;16.07;;;6.20;;
6394;SDS011;3230;42.588;23.358;2023-02-23T09:03:26;10.83;;;7.00;;
6394;SDS011;3230;42.588;23.358;2023-02-23T09:05:54;9.70;;;6.30;;
6394;SDS011;3230;42.588;23.358;2023-02-23T09:08:20;9.77;;;6.67;;
6394;SDS011;3230;42.588;23.358;2023-02-23T09:10:46;10.80;;;6.77;;
6394;SDS011;3230;42.588;23.358;2023-02-23T09:13:12;10.00;;;6.70;;
6394;SDS011;3230;42.588;23.358;2023-02-23T09:15:39;12.30;;;6.67;;
6394;SDS011;3230;42.588;23.358;2023-02-23T09:18:05;13.60;;;6.60;;
6394;SDS011;3230;42.588;23.358;2023-02-23T09:20:34;20.60;;;7.67;;
6394;SDS011;3230;42.588;23.358;2023-02-23T09:22:59;26.70;;;7.63;;
6394;SDS011;3230;42.588;23.358;2023-02-23T09:25:25;11.80;;;6.40;;
6394;SDS011;3230;42.588;23.358;2023-02-23T09:27:52;13.50;;;6.23;;
6394;SDS011;3230;42.588;23.358;2023-02-23T09:30:19;14.47;;;5.37;;
6394;SDS011;3230;42.588;23.358;2023-02-23T09:32:49;10.97;;;6.23;;
6394;SDS011;3230;42.588;23.358;2023-02-23T09:35:15;9.03;;;6.20;;
6394;SDS011;3230;42.588;23.358;2023-02-23T09:37:46;9.80;;;6.00;;
6394;SDS011;3230;42.588;23.358;2023-02-23T09:40:16;19.23;;;7.50;;
6394;SDS011;3230;42.588;23.358;2023-02-23T09:42:45;11.13;;;6.70;;
6394;SDS011;3230;42.588;23.358;2023-02-23T09:47:59;10.67;;;6.00;;
6394;SDS011;3230;42.588;23.358;2023-02-23T09:50:50;10.97;;;6.67;;
6394;SDS011;3230;42.588;23.358;2023-02-23T09:56:29;9.80;;;6.13;;
6394;SDS011;3230;42.588;23.358;2023-02-23T09:58:59;11.07;;;5.30;;
6394;SDS011;3230;42.588;23.358;2023-02-23T10:06:22;12.40;;;7.10;;
6394;SDS011;3230;42.588;23.358;2023-02-23T10:12:04;14.27;;;6.90;;
6394;SDS011;3230;42.588;23.358;2023-02-23T10:17:54;12.40;;;6.63;;
6394;SDS011;3230;42.588;23.358;2023-02-23T10:23:57;14.53;;;7.77;;
6394;SDS011;3230;42.588;23.358;2023-02-23T10:26:40;13.77;;;7.80;;
6394;SDS011;3230;42.588;23.358;2023-02-23T10:34:53;11.03;;;6.90;;
6394;SDS011;3230;42.588;23.358;2023-02-23T10:37:20;13.63;;;6.83;;
6394;SDS011;3230;42.588;23.358;2023-02-23T10:39:48;10.83;;;7.00;;
6394;SDS011;3230;42.588;23.358;2023-02-23T10:42:25;18.00;;;8.60;;
6394;SDS011;3230;42.588;23.358;2023-02-23T10:44:56;11.17;;;6.90;;
6394;SDS011;3230;42.588;23.358;2023-02-23T10:47:23;12.10;;;6.50;;
6394;SDS011;3230;42.588;23.358;2023-02-23T10:49:53;15.03;;;6.87;;
6394;SDS011;3230;42.588;23.358;2023-02-23T10:54:53;15.33;;;7.63;;
6394;SDS011;3230;42.588;23.358;2023-02-23T11:02:31;10.37;;;6.90;;
6394;SDS011;3230;42.588;23.358;2023-02-23T11:04:59;24.60;;;8.20;;
6394;SDS011;3230;42.588;23.358;2023-02-23T11:07:26;16.23;;;8.07;;
6394;SDS011;3230;42.588;23.358;2023-02-23T11:10:38;12.80;;;8.07;;
6394;SDS011;3230;42.588;23.358;2023-02-23T11:12:50;18.37;;;7.50;;
6394;SDS011;3230;42.588;23.358;2023-02-23T11:15:20;20.13;;;6.73;;
6394;SDS011;3230;42.588;23.358;2023-02-23T11:17:53;16.20;;;7.40;;
6394;SDS011;3230;42.588;23.358;2023-02-23T11:20:23;16.43;;;7.40;;
6394;SDS011;3230;42.588;23.358;2023-02-23T11:22:49;11.53;;;7.07;;
6394;SDS011;3230;42.588;23.358;2023-02-23T11:25:22;10.20;;;7.40;;
6394;SDS011;3230;42.588;23.358;2023-02-23T11:27:51;13.93;;;7.00;;
6394;SDS011;3230;42.588;23.358;2023-02-23T11:30:21;10.20;;;6.40;;
6394;SDS011;3230;42.588;23.358;2023-02-23T11:32:49;12.70;;;6.63;;
6394;SDS011;3230;42.588;23.358;2023-02-23T11:37:43;12.03;;;5.90;;
6394;SDS011;3230;42.588;23.358;2023-02-23T11:40:20;9.43;;;5.17;;
6394;SDS011;3230;42.588;23.358;2023-02-23T11:45:30;13.27;;;6.37;;
6394;SDS011;3230;42.588;23.358;2023-02-23T11:48:02;9.33;;;5.47;;
6394;SDS011;3230;42.588;23.358;2023-02-23T11:50:30;13.73;;;5.53;;
6394;SDS011;3230;42.588;23.358;2023-02-23T11:55:31;9.13;;;5.40;;
6394;SDS011;3230;42.588;23.358;2023-02-23T11:58:09;10.53;;;5.70;;
6394;SDS011;3230;42.588;23.358;2023-02-23T12:00:54;8.07;;;5.20;;
6394;SDS011;3230;42.588;23.358;2023-02-23T12:03:24;9.27;;;5.57;;
6394;SDS011;3230;42.588;23.358;2023-02-23T12:05:52;11.60;;;5.37;;
6394;SDS011;3230;42.588;23.358;2023-02-23T12:08:36;12.20;;;5.37;;
6394;SDS011;3230;42.588;23.358;2023-02-23T12:11:10;8.53;;;5.57;;
6394;SDS011;3230;42.588;23.358;2023-02-23T12:13:42;8.47;;;5.10;;
6394;SDS011;3230;42.588;23.358;2023-02-23T12:16:20;10.50;;;5.37;;
6394;SDS011;3230;42.588;23.358;2023-02-23T12:24:36;11.07;;;5.80;;
6394;SDS011;3230;42.588;23.358;2023-02-23T12:35:01;12.07;;;6.33;;
6394;SDS011;3230;42.588;23.358;2023-02-23T12:37:39;9.40;;;5.90;;
6394;SDS011;3230;42.588;23.358;2023-02-23T12:43:01;9.00;;;5.93;;
6394;SDS011;3230;42.588;23.358;2023-02-23T12:45:45;11.97;;;5.43;;
6394;SDS011;3230;42.588;23.358;2023-02-23T12:54:07;11.00;;;5.90;;
6394;SDS011;3230;42.588;23.358;2023-02-23T13:05:27;12.03;;;6.43;;
6394;SDS011;3230;42.588;23.358;2023-02-23T13:15:45;11.80;;;6.50;;
6394;SDS011;3230;42.588;23.358;2023-02-23T13:18:28;14.60;;;6.70;;
6394;SDS011;3230;42.588;23.358;2023-02-23T13:21:01;18.30;;;10.73;;
6394;SDS011;3230;42.588;23.358;2023-02-23T13:31:48;9.10;;;5.70;;
6394;SDS011;3230;42.588;23.358;2023-02-23T13:34:23;13.23;;;5.70;;
6394;SDS011;3230;42.588;23.358;2023-02-23T13:36:52;17.20;;;5.87;;
6394;SDS011;3230;42.588;23.358;2023-02-23T13:52:43;13.10;;;6.50;;
6394;SDS011;3230;42.588;23.358;2023-02-23T13:57:51;10.07;;;6.07;;
6394;SDS011;3230;42.588;23.358;2023-02-23T14:00:19;10.37;;;5.70;;
6394;SDS011;3230;42.588;23.358;2023-02-23T14:02:46;8.70;;;5.33;;
6394;SDS011;3230;42.588;23.358;2023-02-23T14:05:23;12.97;;;5.50;;
6394;SDS011;3230;42.588;23.358;2023-02-23T14:07:51;12.93;;;5.43;;
6394;SDS011;3230;42.588;23.358;2023-02-23T14:10:20;11.47;;;5.60;;
6394;SDS011;3230;42.588;23.358;2023-02-23T14:13:06;11.90;;;7.53;;
6394;SDS011;3230;42.588;23.358;2023-02-23T14:20:43;8.50;;;5.27;;
6394;SDS011;3230;42.588;23.358;2023-02-23T14:25:49;6.93;;;4.87;;
6394;SDS011;3230;42.588;23.358;2023-02-23T14:31:02;10.80;;;5.63;;
6394;SDS011;3230;42.588;23.358;2023-02-23T14:41:21;17.80;;;6.87;;
6394;SDS011;3230;42.588;23.358;2023-02-23T14:44:33;20.30;;;8.23;;
6394;SDS011;3230;42.588;23.358;2023-02-23T14:49:04;50.27;;;22.43;;
6394;SDS011;3230;42.588;23.358;2023-02-23T14:51:43;8.97;;;5.97;;
6394;SDS011;3230;42.588;23.358;2023-02-23T14:54:32;29.03;;;15.80;;
6394;SDS011;3230;42.588;23.358;2023-02-23T14:56:58;14.23;;;9.27;;
6394;SDS011;3230;42.588;23.358;2023-02-23T14:59:28;13.60;;;7.77;;
6394;SDS011;3230;42.588;23.358;2023-02-23T15:01:54;11.07;;;7.40;;
6394;SDS011;3230;42.588;23.358;2023-02-23T15:04:22;23.60;;;9.90;;
6394;SDS011;3230;42.588;23.358;2023-02-23T15:06:47;27.93;;;13.50;;
6394;SDS011;3230;42.588;23.358;2023-02-23T15:09:22;46.73;;;19.90;;
6394;SDS011;3230;42.588;23.358;2023-02-23T15:11:48;19.00;;;9.93;;
6394;SDS011;3230;42.588;23.358;2023-02-23T15:14:15;16.23;;;8.17;;
6394;SDS011;3230;42.588;23.358;2023-02-23T15:16:41;9.80;;;6.53;;
6394;SDS011;3230;42.588;23.358;2023-02-23T15:19:09;11.63;;;6.20;;
6394;SDS011;3230;42.588;23.358;2023-02-23T15:21:38;11.43;;;7.23;;
6394;SDS011;3230;42.588;23.358;2023-02-23T15:24:11;13.37;;;7.83;;
6394;SDS011;3230;42.588;23.358;2023-02-23T15:26:38;31.87;;;13.57;;
6394;SDS011;3230;42.588;23.358;2023-02-23T15:31:37;13.07;;;7.73;;
6394;SDS011;3230;42.588;23.358;2023-02-23T15:34:14;17.97;;;8.07;;
6394;SDS011;3230;42.588;23.358;2023-02-23T15:36:39;14.17;;;8.27;;
6394;SDS011;3230;42.588;23.358;2023-02-23T15:39:05;21.17;;;10.37;;
6394;SDS011;3230;42.588;23.358;2023-02-23T15:41:36;23.00;;;11.43;;
6394;SDS011;3230;42.588;23.358;2023-02-23T15:46:27;17.30;;;10.23;;
6394;SDS011;3230;42.588;23.358;2023-02-23T15:48:53;18.63;;;9.50;;
6394;SDS011;3230;42.588;23.358;2023-02-23T15:53:50;20.57;;;10.80;;
6394;SDS011;3230;42.588;23.358;2023-02-23T15:56:19;16.93;;;10.20;;
6394;SDS011;3230;42.588;23.358;2023-02-23T15:58:48;19.37;;;11.03;;
6394;SDS011;3230;42.588;23.358;2023-02-23T16:01:21;24.87;;;12.27;;
6394;SDS011;3230;42.588;23.358;2023-02-23T16:06:35;21.63;;;10.47;;
6394;SDS011;3230;42.588;23.358;2023-02-23T16:09:11;23.33;;;12.97;;
6394;SDS011;3230;42.588;23.358;2023-02-23T16:11:46;17.67;;;10.87;;
6394;SDS011;3230;42.588;23.358;2023-02-23T16:14:13;17.83;;;8.77;;
6394;SDS011;3230;42.588;23.358;2023-02-23T16:16:39;13.17;;;8.30;;
6394;SDS011;3230;42.588;23.358;2023-02-23T16:19:04;12.53;;;7.43;;
6394;SDS011;3230;42.588;23.358;2023-02-23T16:21:29;15.50;;;7.97;;
6394;SDS011;3230;42.588;23.358;2023-02-23T16:23:55;15.37;;;8.20;;
6394;SDS011;3230;42.588;23.358;2023-02-23T16:28:51;23.33;;;11.40;;
6394;SDS011;3230;42.588;23.358;2023-02-23T16:31:22;30.73;;;14.03;;
6394;SDS011;3230;42.588;23.358;2023-02-23T16:33:52;34.53;;;15.63;;
6394;SDS011;3230;42.588;23.358;2023-02-23T16:36:36;32.27;;;15.30;;
6394;SDS011;3230;42.588;23.358;2023-02-23T16:39:05;17.47;;;8.97;;
6394;SDS011;3230;42.588;23.358;2023-02-23T16:41:33;20.67;;;9.87;;
6394;SDS011;3230;42.588;23.358;2023-02-23T16:44:00;18.63;;;9.77;;
6394;SDS011;3230;42.588;23.358;2023-02-23T16:46:29;28.10;;;11.10;;
6394;SDS011;3230;42.588;23.358;2023-02-23T16:48:55;18.13;;;9.97;;
6394;SDS011;3230;42.588;23.358;2023-02-23T16:51:29;17.23;;;8.30;;
6394;SDS011;3230;42.588;23.358;2023-02-23T16:53:55;17.40;;;9.13;;
6394;SDS011;3230;42.588;23.358;2023-02-23T16:56:20;20.53;;;9.20;;
6394;SDS011;3230;42.588;23.358;2023-02-23T16:58:47;10.80;;;6.70;;
6394;SDS011;3230;42.588;23.358;2023-02-23T17:01:13;13.97;;;8.03;;
6394;SDS011;3230;42.588;23.358;2023-02-23T17:03:39;10.50;;;6.60;;
6394;SDS011;3230;42.588;23.358;2023-02-23T17:06:04;11.80;;;7.00;;
6394;SDS011;3230;42.588;23.358;2023-02-23T17:08:29;13.10;;;7.20;;
6394;SDS011;3230;42.588;23.358;2023-02-23T17:10:55;16.57;;;8.00;;
6394;SDS011;3230;42.588;23.358;2023-02-23T17:13:24;10.67;;;6.43;;
6394;SDS011;3230;42.588;23.358;2023-02-23T17:15:51;13.10;;;6.90;;
6394;SDS011;3230;42.588;23.358;2023-02-23T17:18:27;13.60;;;7.70;;
6394;SDS011;3230;42.588;23.358;2023-02-23T17:20:54;13.97;;;7.97;;
6394;SDS011;3230;42.588;23.358;2023-02-23T17:23:21;11.67;;;7.10;;
6394;SDS011;3230;42.588;23.358;2023-02-23T17:25:47;10.67;;;5.60;;
6394;SDS011;3230;42.588;23.358;2023-02-23T17:28:12;16.40;;;8.03;;
6394;SDS011;3230;42.588;23.358;2023-02-23T17:30:38;13.10;;;7.40;;
6394;SDS011;3230;42.588;23.358;2023-02-23T17:33:04;10.83;;;6.50;;
6394;SDS011;3230;42.588;23.358;2023-02-23T17:35:30;14.77;;;6.73;;
6394;SDS011;3230;42.588;23.358;2023-02-23T17:37:57;14.23;;;7.50;;
6394;SDS011;3230;42.588;23.358;2023-02-23T17:40:23;12.67;;;7.20;;
6394;SDS011;3230;42.588;23.358;2023-02-23T17:42:53;13.40;;;7.17;;
6394;SDS011;3230;42.588;23.358;2023-02-23T17:45:18;17.63;;;7.23;;
6394;SDS011;3230;42.588;23.358;2023-02-23T17:47:43;11.50;;;7.20;;
6394;SDS011;3230;42.588;23.358;2023-02-23T17:50:09;16.70;;;6.50;;
6394;SDS011;3230;42.588;23.358;2023-02-23T17:52:34;15.80;;;8.30;;
6394;SDS011;3230;42.588;23.358;2023-02-23T17:54:59;14.07;;;8.10;;
6394;SDS011;3230;42.588;23.358;2023-02-23T17:57:25;15.70;;;7.97;;
6394;SDS011;3230;42.588;23.358;2023-02-23T17:59:51;20.00;;;10.20;;
6394;SDS011;3230;42.588;23.358;2023-02-23T18:02:17;22.10;;;11.40;;
6394;SDS011;3230;42.588;23.358;2023-02-23T18:04:43;18.57;;;10.23;;